Time;durP1;ratioP1;P1;durP2;ratioP2;P2;SDS_P1;SDS_P2;PMS_P1;PMS_P2;Temp;Humidity;BMP_temperature;BMP_pressure;BME280_temperature;BME280_humidity;BME280_pressure;Samples;Min_cycle;Max_cycle;Signal;HPM_P1;HPM_P2
2024/04/17 00:01:05;;;;;;;;;;;;;;;;;;5216048;26;87889;-73
2024/04/17 00:03:30;;;;;;;;;;;;;;;;;;5210244;26;87926;-73
2024/04/17 00:05:56;;;;;;;;;;;;;;;;;;5213651;26;89367;-73
2024/04/17 00:08:21;;;;;;;;;;;;;;;;;;5217636;26;86752;-73
2024/04/17 00:10:46;;;;;;;;;;;;;;;;;;5219951;26;87759;-73
2024/04/17 00:13:11;;;;;;;;;;;;;;;;;;5215736;26;87128;-73
2024/04/17 00:15:36;;;;;;;;;;;;;;;;;;5222904;26;87352;-69
2024/04/17 00:18:02;;;;;;;;;;;;;;;;;;5222362;27;87804;-72
2024/04/17 00:20:27;;;;;;;;;;;;;;;;;;5226076;26;87192;-70
2024/04/17 00:22:52;;;;;;;;;;;;;;;;;;5203995;26;88406;-73
2024/04/17 00:25:17;;;;;;;;;;;;;;;;;;5215424;27;87061;-71
2024/04/17 00:27:42;;;;;;;;;;;;;;;;;;5218870;27;86647;-72
2024/04/17 00:30:08;;;;;;;;;;;;;;;;;;5218984;26;87087;-68
2024/04/17 00:32:33;;;;;;;;;;;;;;;;;;5217863;26;88614;-70
2024/04/17 00:34:58;;;;;;;;;;;;;;;;;;5214884;26;87353;-72
2024/04/17 00:37:23;;;;;;;;;;;;;;;;;;5206077;26;87360;-73
2024/04/17 00:39:49;;;;;;;;;;;;;;;;;;5217049;26;87750;-73
2024/04/17 00:42:14;;;;;;;;;;;;;;;;;;5217152;27;87186;-67
2024/04/17 00:44:39;;;;;;;;;;;;;;;;;;5218038;26;87114;-70
2024/04/17 00:47:08;;;;;;;;;;;;;;;;;;5242973;26;86936;-70
2024/04/17 00:49:34;;;;;;;;;;;;;;;;;;5219867;26;87770;-72
2024/04/17 00:51:59;;;;;;;;;;;;;;;;;;5213798;27;87590;-71
2024/04/17 00:54:24;;;;;;;;;;;;;;;;;;5214845;26;87877;-71
2024/04/17 00:56:50;;;;;;;;;;;;;;;;;;5218008;27;87562;-72
2024/04/17 00:59:15;;;;;;;;;;;;;;;;;;5218059;27;87385;-72
2024/04/17 01:01:40;;;;;;;;;;;;;;;;;;5216445;27;86701;-73
2024/04/17 01:04:06;;;;;;;;;;;;;;;;;;5216484;26;87116;-74
2024/04/17 01:06:31;;;;;;;;;;;;;;;;;;5212539;27;87306;-72
2024/04/17 01:08:56;;;;;;;;;;;;;;;;;;5214599;26;87980;-71
2024/04/17 01:11:21;;;;;;;;;;;;;;;;;;5214897;27;88267;-73
2024/04/17 01:13:47;;;;;;;;;;;;;;;;;;5214036;27;88451;-72
2024/04/17 01:16:12;;;;;;;;;;;;;;;;;;5217300;26;88074;-73
2024/04/17 01:18:38;;;;;;;;;;;;;;;;;;5205080;26;87877;-73
2024/04/17 01:21:03;;;;;;;;;;;;;;;;;;5216444;26;87146;-72
2024/04/17 01:23:28;;;;;;;;;;;;;;;;;;5220924;26;88781;-73
2024/04/17 01:25:54;;;;;;;;;;;;;;;;;;5206558;26;87023;-73
2024/04/17 01:28:19;;;;;;;;;;;;;;;;;;5220184;26;87500;-72
2024/04/17 01:30:44;;;;;;;;;;;;;;;;;;5217608;26;87124;-73
2024/04/17 01:33:09;;;;;;;;;;;;;;;;;;5220521;26;87085;-72
2024/04/17 01:35:34;;;;;;;;;;;;;;;;;;5221298;27;87597;-73
2024/04/17 01:38:00;;;;;;;;;;;;;;;;;;5221628;26;87711;-73
2024/04/17 01:40:25;;;;;;;;;;;;;;;;;;5211828;26;86966;-70
2024/04/17 01:42:50;;;;;;;;;;;;;;;;;;5222820;26;87847;-70
2024/04/17 01:45:15;;;;;;;;;;;;;;;;;;5215403;26;87453;-72
2024/04/17 01:47:40;;;;;;;;;;;;;;;;;;5221676;27;87445;-68
2024/04/17 01:50:07;;;;;;;;;;;;;;;;;;5213898;26;87771;-71
2024/04/17 01:52:32;;;;;;;;;;;;;;;;;;5218399;26;86631;-74
2024/04/17 01:54:57;;;;;;;;;;;;;;;;;;5217907;26;87396;-72
2024/04/17 01:57:22;;;;;;;;;;;;;;;;;;5224730;26;87984;-72
2024/04/17 01:59:47;;;;;;;;;;;;;;;;;;5215766;26;88672;-71
2024/04/17 02:02:13;;;;;;;;;;;;;;;;;;5218588;26;87545;-73
2024/04/17 02:04:38;;;;;;;;;;;;;;;;;;5218305;26;87259;-71
2024/04/17 02:07:03;;;;;;;;;;;;;;;;;;5222282;27;87281;-73
2024/04/17 02:09:28;;;;;;;;;;;;;;;;;;5220048;26;87627;-73
2024/04/17 02:11:54;;;;;;;;;;;;;;;;;;5219200;26;87850;-72
2024/04/17 02:14:19;;;;;;;;;;;;;;;;;;5202050;26;88276;-70
2024/04/17 02:16:44;;;;;;;;;;;;;;;;;;5220271;27;87109;-72
2024/04/17 02:19:09;;;;;;;;;;;;;;;;;;5204964;26;87238;-72
2024/04/17 02:21:34;;;;;;;;;;;;;;;;;;5216155;27;87571;-69
2024/04/17 02:24:00;;;;;;;;;;;;;;;;;;5217910;26;87346;-72
2024/04/17 02:26:25;;;;;;;;;;;;;;;;;;5207358;26;87190;-70
2024/04/17 02:28:50;;;;;;;;;;;;;;;;;;5217065;26;88829;-71
2024/04/17 02:31:15;;;;;;;;;;;;;;;;;;5216063;26;86687;-68
2024/04/17 02:33:40;;;;;;;;;;;;;;;;;;5244782;26;87930;-73
2024/04/17 02:36:06;;;;;;;;;;;;;;;;;;5218769;26;87197;-68
2024/04/17 02:38:31;;;;;;;;;;;;;;;;;;5204154;26;87037;-72
2024/04/17 02:40:56;;;;;;;;;;;;;;;;;;5223157;26;88519;-70
2024/04/17 02:43:21;;;;;;;;;;;;;;;;;;5213982;26;88225;-68
2024/04/17 02:45:47;;;;;;;;;;;;;;;;;;5217826;26;86612;-69
2024/04/17 02:48:12;;;;;;;;;;;;;;;;;;5211294;27;86971;-68
2024/04/17 02:50:38;;;;;;;;;;;;;;;;;;5222729;26;86891;-73
2024/04/17 02:53:04;;;;;;;;;;;;;;;;;;5216904;26;87750;-72
2024/04/17 02:55:29;;;;;;;;;;;;;;;;;;5215908;26;87942;-73
2024/04/17 02:57:54;;;;;;;;;;;;;;;;;;5215442;26;87938;-71
2024/04/17 03:00:19;;;;;;;;;;;;;;;;;;5215132;26;87288;-70
2024/04/17 03:02:44;;;;;;;;;;;;;;;;;;5224966;26;86912;-69
2024/04/17 03:05:10;;;;;;;;;;;;;;;;;;5219176;26;86678;-73
2024/04/17 03:07:35;;;;;;;;;;;;;;;;;;5217421;26;88615;-68
2024/04/17 03:10:00;;;;;;;;;;;;;;;;;;5219985;26;87676;-72
2024/04/17 03:12:25;;;;;;;;;;;;;;;;;;5218504;27;87485;-73
2024/04/17 03:14:51;;;;;;;;;;;;;;;;;;5202981;26;89427;-72
2024/04/17 03:17:16;;;;;;;;;;;;;;;;;;5215488;26;87732;-70
2024/04/17 03:19:41;;;;;;;;;;;;;;;;;;5212842;26;87223;-72
2024/04/17 03:22:06;;;;;;;;;;;;;;;;;;5218008;26;87086;-72
2024/04/17 03:24:31;;;;;;;;;;;;;;;;;;5215611;27;87121;-72
2024/04/17 03:26:57;;;;;;;;;;;;;;;;;;5216104;26;87400;-71
2024/04/17 03:29:22;;;;;;;;;;;;;;;;;;5221184;26;87982;-73
2024/04/17 03:31:47;;;;;;;;;;;;;;;;;;5226855;26;87216;-73
2024/04/17 03:34:12;;;;;;;;;;;;;;;;;;5212492;26;86712;-74
2024/04/17 03:36:38;;;;;;;;;;;;;;;;;;5211023;26;87230;-73
2024/04/17 03:39:03;;;;;;;;;;;;;;;;;;5218658;26;87624;-73
2024/04/17 03:41:28;;;;;;;;;;;;;;;;;;5214518;27;87133;-72
2024/04/17 03:43:53;;;;;;;;;;;;;;;;;;5209772;26;86649;-73
2024/04/17 03:46:18;;;;;;;;;;;;;;;;;;5214863;26;88081;-71
2024/04/17 03:48:44;;;;;;;;;;;;;;;;;;5208485;26;87230;-67
2024/04/17 03:51:09;;;;;;;;;;;;;;;;;;5217989;26;87104;-69
2024/04/17 03:53:34;;;;;;;;;;;;;;;;;;5221244;26;87708;-70
2024/04/17 03:55:59;;;;;;;;;;;;;;;;;;5218012;26;87381;-74
2024/04/17 03:58:25;;;;;;;;;;;;;;;;;;5213263;27;88423;-66
2024/04/17 04:00:50;;;;;;;;;;;;;;;;;;5203413;26;86924;-71
2024/04/17 04:03:15;;;;;;;;;;;;;;;;;;5214031;26;87053;-72
2024/04/17 04:05:44;;;;;;;;;;;;;;;;;;5216164;27;87449;-72
2024/04/17 04:08:10;;;;;;;;;;;;;;;;;;5217097;26;88253;-73
2024/04/17 04:10:35;;;;;;;;;;;;;;;;;;5243872;26;87738;-73
2024/04/17 04:13:01;;;;;;;;;;;;;;;;;;5214046;26;87637;-71
2024/04/17 04:15:26;;;;;;;;;;;;;;;;;;5208727;26;87917;-71
2024/04/17 04:17:51;;;;;;;;;;;;;;;;;;5209643;27;89955;-72
2024/04/17 04:20:17;;;;;;;;;;;;;;;;;;5212720;26;87003;-72
2024/04/17 04:22:42;;;;;;;;;;;;;;;;;;5206691;26;87318;-71
2024/04/17 04:25:07;;;;;;;;;;;;;;;;;;5210892;27;90244;-72
2024/04/17 04:27:33;;;;;;;;;;;;;;;;;;5216636;26;87314;-72
2024/04/17 04:29:58;;;;;;;;;;;;;;;;;;5216613;26;87465;-71
2024/04/17 04:32:23;;;;;;;;;;;;;;;;;;5213956;26;87230;-70
2024/04/17 04:34:49;;;;;;;;;;;;;;;;;;5225587;26;86939;-73
2024/04/17 04:37:14;;;;;;;;;;;;;;;;;;5218025;26;86973;-73
2024/04/17 04:39:39;;;;;;;;;;;;;;;;;;5203445;26;89540;-72
2024/04/17 04:42:05;;;;;;;;;;;;;;;;;;5226018;26;86646;-73
2024/04/17 04:44:30;;;;;;;;;;;;;;;;;;5215444;26;88527;-72
2024/04/17 04:46:56;;;;;;;;;;;;;;;;;;5217949;26;87577;-73
2024/04/17 04:49:21;;;;;;;;;;;;;;;;;;5215604;26;88203;-73
2024/04/17 04:51:47;;;;;;;;;;;;;;;;;;5211634;26;88967;-68
2024/04/17 04:54:12;;;;;;;;;;;;;;;;;;5213123;26;87357;-74
2024/04/17 04:56:37;;;;;;;;;;;;;;;;;;5211367;26;87744;-72
2024/04/17 04:59:03;;;;;;;;;;;;;;;;;;5214556;26;88664;-73
2024/04/17 05:01:28;;;;;;;;;;;;;;;;;;5216817;26;87990;-72
2024/04/17 05:03:54;;;;;;;;;;;;;;;;;;5212656;27;88474;-71
2024/04/17 05:06:19;;;;;;;;;;;;;;;;;;5215701;27;87289;-72
2024/04/17 05:08:44;;;;;;;;;;;;;;;;;;5216685;26;86862;-72
2024/04/17 05:11:11;;;;;;;;;;;;;;;;;;5219403;27;87362;-73
2024/04/17 05:13:37;;;;;;;;;;;;;;;;;;5233327;26;87846;-73
2024/04/17 05:16:02;;;;;;;;;;;;;;;;;;5220240;27;88192;-71
2024/04/17 05:18:28;;;;;;;;;;;;;;;;;;5204604;27;88817;-73
2024/04/17 05:20:54;;;;;;;;;;;;;;;;;;5216037;27;87918;-71
2024/04/17 05:23:19;;;;;;;;;;;;;;;;;;5208352;27;87423;-73
2024/04/17 05:25:44;;;;;;;;;;;;;;;;;;5223404;27;88056;-73
2024/04/17 05:28:09;;;;;;;;;;;;;;;;;;5213253;27;86649;-73
2024/04/17 05:30:35;;;;;;;;;;;;;;;;;;5220086;27;87516;-72
2024/04/17 05:33:00;;;;;;;;;;;;;;;;;;5213976;27;87562;-71
2024/04/17 05:35:25;;;;;;;;;;;;;;;;;;5213924;26;87588;-73
2024/04/17 05:37:51;;;;;;;;;;;;;;;;;;5211362;26;87963;-73
2024/04/17 05:40:16;;;;;;;;;;;;;;;;;;5214190;27;87080;-73
2024/04/17 05:42:41;;;;;;;;;;;;;;;;;;5212005;27;87433;-73
2024/04/17 05:45:06;;;;;;;;;;;;;;;;;;5212509;26;88982;-72
2024/04/17 05:47:31;;;;;;;;;;;;;;;;;;5212385;27;86787;-74
2024/04/17 05:49:57;;;;;;;;;;;;;;;;;;5208689;27;89968;-73
2024/04/17 05:52:22;;;;;;;;;;;;;;;;;;5208732;27;88213;-70
2024/04/17 05:54:47;;;;;;;;;;;;;;;;;;5226626;26;87184;-71
2024/04/17 05:57:12;;;;;;;;;;;;;;;;;;5223570;27;87374;-72
2024/04/17 05:59:37;;;;;;;;;;;;;;;;;;5223881;27;87508;-71
2024/04/17 06:02:03;;;;;;;;;;;;;;;;;;5215954;26;88355;-74
2024/04/17 06:04:29;;;;;;;;;;;;;;;;;;5210560;27;88128;-74
2024/04/17 06:06:55;;;;;;;;;;;;;;;;;;5207127;26;88224;-73
2024/04/17 06:09:20;;;;;;;;;;;;;;;;;;5205520;26;88455;-67
2024/04/17 06:11:45;;;;;;;;;;;;;;;;;;5214259;26;86867;-72
2024/04/17 06:14:10;;;;;;;;;;;;;;;;;;5204885;26;87153;-73
2024/04/17 06:16:35;;;;;;;;;;;;;;;;;;5215844;27;86744;-71
2024/04/17 06:19:01;;;;;;;;;;;;;;;;;;5215204;26;86850;-74
2024/04/17 06:21:29;;;;;;;;;;;;;;;;;;5220173;26;87414;-73
2024/04/17 06:23:54;;;;;;;;;;;;;;;;;;5219242;26;88493;-73
2024/04/17 06:26:19;;;;;;;;;;;;;;;;;;5218475;26;87797;-72
2024/04/17 06:28:45;;;;;;;;;;;;;;;;;;5215604;26;88368;-72
2024/04/17 06:31:10;;;;;;;;;;;;;;;;;;5219684;26;87557;-73
2024/04/17 06:33:35;;;;;;;;;;;;;;;;;;5242259;26;87937;-74
2024/04/17 06:36:01;;;;;;;;;;;;;;;;;;5218922;26;88456;-71
2024/04/17 06:38:26;;;;;;;;;;;;;;;;;;5209968;26;87318;-74
2024/04/17 06:40:51;;;;;;;;;;;;;;;;;;5221061;26;88992;-74
2024/04/17 06:43:17;;;;;;;;;;;;;;;;;;5205611;26;87846;-74
2024/04/17 06:45:42;;;;;;;;;;;;;;;;;;5222749;27;87332;-73
2024/04/17 06:48:08;;;;;;;;;;;;;;;;;;5227319;26;87579;-73
2024/04/17 06:50:34;;;;;;;;;;;;;;;;;;5216648;26;87986;-74
2024/04/17 06:52:59;;;;;;;;;;;;;;;;;;5242836;26;88255;-74
2024/04/17 06:55:25;;;;;;;;;;;;;;;;;;5216324;27;87474;-71
2024/04/17 06:57:50;;;;;;;;;;;;;;;;;;5216510;26;88055;-71
2024/04/17 07:00:16;;;;;;;;;;;;;;;;;;5216045;26;87328;-71
2024/04/17 07:02:41;;;;;;;;;;;;;;;;;;5215864;27;87526;-67
2024/04/17 07:05:06;;;;;;;;;;;;;;;;;;5221799;26;87159;-76
2024/04/17 07:07:31;;;;;;;;;;;;;;;;;;5235016;26;86955;-80
2024/04/17 07:09:59;;;;;;;;;;;;;;;;;;5237816;26;87180;-80
2024/04/17 07:12:26;;;;;;;;;;;;;;;;;;5234330;26;87164;-80
2024/04/17 07:14:52;;;;;;;;;;;;;;;;;;5249505;26;90685;-82
2024/04/17 07:17:23;;;;;;;;;;;;;;;;;;5225664;27;89834;-81
2024/04/17 07:19:48;;;;;;;;;;;;;;;;;;5256409;26;87801;-79
2024/04/17 07:22:39;;;;;;;;;;;;;;;;;;5267229;26;88519;-79
2024/04/17 07:25:16;;;;;;;;;;;;;;;;;;5231828;27;86636;-80
2024/04/17 07:27:42;;;;;;;;;;;;;;;;;;5235573;27;86501;-80
2024/04/17 07:30:17;;;;;;;;;;;;;;;;;;5259529;27;87405;-79
2024/04/17 07:32:44;;;;;;;;;;;;;;;;;;5283186;26;86634;-79
2024/04/17 07:35:47;;;;;;;;;;;;;;;;;;5293192;26;86585;-79
2024/04/17 07:38:15;;;;;;;;;;;;;;;;;;5260642;26;86939;-80
2024/04/17 07:41:10;;;;;;;;;;;;;;;;;;5259476;27;87403;-80
2024/04/17 07:43:35;;;;;;;;;;;;;;;;;;5278606;26;87650;-79
2024/04/17 07:46:01;;;;;;;;;;;;;;;;;;5266341;26;87537;-79
2024/04/17 07:48:27;;;;;;;;;;;;;;;;;;5230865;27;87133;-78
2024/04/17 07:50:52;;;;;;;;;;;;;;;;;;5261048;27;87862;-78
2024/04/17 07:53:17;;;;;;;;;;;;;;;;;;5259233;27;87211;-81
2024/04/17 07:55:42;;;;;;;;;;;;;;;;;;5259129;26;87324;-82
2024/04/17 07:58:08;;;;;;;;;;;;;;;;;;5247853;26;86841;-81
2024/04/17 08:00:34;;;;;;;;;;;;;;;;;;5226634;27;87025;-80
2024/04/17 08:02:59;;;;;;;;;;;;;;;;;;5250023;27;87584;-78
2024/04/17 08:05:24;;;;;;;;;;;;;;;;;;5244528;27;86974;-78
2024/04/17 08:07:49;;;;;;;;;;;;;;;;;;5215103;27;86604;-75
2024/04/17 08:10:16;;;;;;;;;;;;;;;;;;5253336;26;88635;-80
2024/04/17 08:12:47;;;;;;;;;;;;;;;;;;5264265;26;89934;-82
2024/04/17 08:15:13;;;;;;;;;;;;;;;;;;5241169;26;89483;-80
2024/04/17 08:17:39;;;;;;;;;;;;;;;;;;5221921;26;87165;-80
2024/04/17 08:20:11;;;;;;;;;;;;;;;;;;5247186;26;86701;-77
2024/04/17 08:22:38;;;;;;;;;;;;;;;;;;5247012;26;86633;-81
2024/04/17 08:25:03;;;;;;;;;;;;;;;;;;5264211;26;87209;-82
2024/04/17 08:27:32;;;;;;;;;;;;;;;;;;5273843;26;86348;-82
2024/04/17 08:29:58;;;;;;;;;;;;;;;;;;5260197;26;86658;-80
2024/04/17 08:32:26;;;;;;;;;;;;;;;;;;5263011;26;86603;-82
2024/04/17 08:34:51;;;;;;;;;;;;;;;;;;5261574;26;86491;-81
2024/04/17 08:37:18;;;;;;;;;;;;;;;;;;5254310;26;87674;-80
2024/04/17 08:39:44;;;;;;;;;;;;;;;;;;5257442;26;85746;-82
2024/04/17 08:42:14;;;;;;;;;;;;;;;;;;5256797;26;88349;-78
2024/04/17 08:44:41;;;;;;;;;;;;;;;;;;5239473;26;87260;-80
2024/04/17 08:47:08;;;;;;;;;;;;;;;;;;5231881;26;88025;-82
2024/04/17 08:49:34;;;;;;;;;;;;;;;;;;5240864;27;91347;-80
2024/04/17 08:52:02;;;;;;;;;;;;;;;;;;5236072;26;87166;-79
2024/04/17 08:54:28;;;;;;;;;;;;;;;;;;5234700;26;86734;-81
2024/04/17 08:56:54;;;;;;;;;;;;;;;;;;5233764;26;91634;-80
2024/04/17 08:59:20;;;;;;;;;;;;;;;;;;5231941;27;86748;-79
2024/04/17 09:01:46;;;;;;;;;;;;;;;;;;5228353;27;86671;-80
2024/04/17 09:04:12;;;;;;;;;;;;;;;;;;5252605;26;88825;-80
2024/04/17 09:06:39;;;;;;;;;;;;;;;;;;5234748;26;86939;-81
2024/04/17 09:09:07;;;;;;;;;;;;;;;;;;5226561;27;87951;-79
2024/04/17 09:11:34;;;;;;;;;;;;;;;;;;5227826;27;86997;-77
2024/04/17 09:13:59;;;;;;;;;;;;;;;;;;5229769;27;87295;-76
2024/04/17 09:16:27;;;;;;;;;;;;;;;;;;5234372;27;86834;-78
2024/04/17 09:18:54;;;;;;;;;;;;;;;;;;5258292;27;88756;-78
2024/04/17 09:21:22;;;;;;;;;;;;;;;;;;5257456;26;87574;-79
2024/04/17 09:23:47;;;;;;;;;;;;;;;;;;5276051;26;90089;-81
2024/04/17 09:26:19;;;;;;;;;;;;;;;;;;5247911;27;86920;-79
2024/04/17 09:28:45;;;;;;;;;;;;;;;;;;5273149;26;87999;-77
2024/04/17 09:31:30;;;;;;;;;;;;;;;;;;5262993;26;88959;-77
2024/04/17 09:34:12;;;;;;;;;;;;;;;;;;5295857;26;88416;-76
2024/04/17 09:36:48;;;;;;;;;;;;;;;;;;5283412;26;87264;-78
2024/04/17 09:39:13;;;;;;;;;;;;;;;;;;5294149;26;86898;-77
2024/04/17 09:41:46;;;;;;;;;;;;;;;;;;5320838;26;88810;-81
2024/04/17 09:44:12;;;;;;;;;;;;;;;;;;5290289;26;89060;-77
2024/04/17 09:46:37;;;;;;;;;;;;;;;;;;5302979;26;86632;-78
2024/04/17 09:49:08;;;;;;;;;;;;;;;;;;5287756;26;87092;-77
2024/04/17 09:51:35;;;;;;;;;;;;;;;;;;5260162;26;87218;-77
2024/04/17 09:54:02;;;;;;;;;;;;;;;;;;5293313;26;86695;-78
2024/04/17 09:56:27;;;;;;;;;;;;;;;;;;5291925;26;90116;-77
2024/04/17 09:58:53;;;;;;;;;;;;;;;;;;5296932;26;87245;-76
2024/04/17 10:01:19;;;;;;;;;;;;;;;;;;5329484;26;87014;-79
2024/04/17 10:03:45;;;;;;;;;;;;;;;;;;5296763;26;86912;-76
2024/04/17 10:06:24;;;;;;;;;;;;;;;;;;5298950;26;87190;-80
2024/04/17 10:09:20;;;;;;;;;;;;;;;;;;5298809;26;86953;-79
2024/04/17 10:11:50;;;;;;;;;;;;;;;;;;5278863;26;87816;-80
2024/04/17 10:14:16;;;;;;;;;;;;;;;;;;5288298;26;87055;-80
2024/04/17 10:16:42;;;;;;;;;;;;;;;;;;5268688;26;89608;-80
2024/04/17 10:19:08;;;;;;;;;;;;;;;;;;5264212;26;87731;-77
2024/04/17 10:21:33;;;;;;;;;;;;;;;;;;5278176;26;87712;-79
2024/04/17 10:24:02;;;;;;;;;;;;;;;;;;5271891;26;87508;-78
2024/04/17 10:26:40;;;;;;;;;;;;;;;;;;5265592;26;87233;-77
2024/04/17 10:29:05;;;;;;;;;;;;;;;;;;5257813;26;88214;-75
2024/04/17 10:31:34;;;;;;;;;;;;;;;;;;5269401;26;88140;-77
2024/04/17 10:34:06;;;;;;;;;;;;;;;;;;5323695;26;88383;-79
2024/04/17 10:36:32;;;;;;;;;;;;;;;;;;5271964;26;89738;-76
2024/04/17 10:38:59;;;;;;;;;;;;;;;;;;5275952;26;87142;-78
2024/04/17 10:41:27;;;;;;;;;;;;;;;;;;5282004;26;87154;-79
2024/04/17 10:44:09;;;;;;;;;;;;;;;;;;5274921;26;86685;-75
2024/04/17 10:46:34;;;;;;;;;;;;;;;;;;5284967;26;86937;-78
2024/04/17 10:49:02;;;;;;;;;;;;;;;;;;5285355;26;87489;-76
2024/04/17 10:51:30;;;;;;;;;;;;;;;;;;5280405;26;87160;-77
2024/04/17 10:53:56;;;;;;;;;;;;;;;;;;5287820;26;87109;-81
2024/04/17 10:56:22;;;;;;;;;;;;;;;;;;5254061;26;91579;-76
2024/04/17 10:58:48;;;;;;;;;;;;;;;;;;5271937;26;87346;-76
2024/04/17 11:01:13;;;;;;;;;;;;;;;;;;5255628;26;87291;-75
2024/04/17 11:03:38;;;;;;;;;;;;;;;;;;5263571;26;87410;-74
2024/04/17 11:06:05;;;;;;;;;;;;;;;;;;5266190;26;87183;-74
2024/04/17 11:08:30;;;;;;;;;;;;;;;;;;5261802;26;87541;-74
2024/04/17 11:10:55;;;;;;;;;;;;;;;;;;5265290;26;86872;-74
2024/04/17 11:13:21;;;;;;;;;;;;;;;;;;5264169;26;86864;-74
2024/04/17 11:15:47;;;;;;;;;;;;;;;;;;5258683;26;86800;-72
2024/04/17 11:18:12;;;;;;;;;;;;;;;;;;5268116;26;86827;-73
2024/04/17 11:20:39;;;;;;;;;;;;;;;;;;5264922;26;87995;-73
2024/04/17 11:23:05;;;;;;;;;;;;;;;;;;5262819;26;88326;-74
2024/04/17 11:25:30;;;;;;;;;;;;;;;;;;5264833;26;88024;-75
2024/04/17 11:27:56;;;;;;;;;;;;;;;;;;5263796;26;86963;-74
2024/04/17 11:30:21;;;;;;;;;;;;;;;;;;5268140;26;87268;-76
2024/04/17 11:32:46;;;;;;;;;;;;;;;;;;5291827;26;87906;-74
2024/04/17 11:35:14;;;;;;;;;;;;;;;;;;5263204;26;87703;-75
2024/04/17 11:37:39;;;;;;;;;;;;;;;;;;5290868;26;87131;-72
2024/04/17 11:40:05;;;;;;;;;;;;;;;;;;5265072;26;87532;-75
2024/04/17 11:42:30;;;;;;;;;;;;;;;;;;5290632;26;87455;-75
2024/04/17 11:44:56;;;;;;;;;;;;;;;;;;5267799;26;87068;-76
2024/04/17 11:47:21;;;;;;;;;;;;;;;;;;5263706;26;86817;-76
2024/04/17 11:49:46;;;;;;;;;;;;;;;;;;5264797;26;87403;-75
2024/04/17 11:52:12;;;;;;;;;;;;;;;;;;5265074;26;87522;-71
2024/04/17 11:54:37;;;;;;;;;;;;;;;;;;5262290;26;87072;-74
2024/04/17 11:57:02;;;;;;;;;;;;;;;;;;5263447;26;88240;-72
2024/04/17 11:59:27;;;;;;;;;;;;;;;;;;5263252;26;87999;-75
2024/04/17 12:01:53;;;;;;;;;;;;;;;;;;5267539;26;87056;-70
2024/04/17 12:04:19;;;;;;;;;;;;;;;;;;5265399;26;89649;-70
2024/04/17 12:06:44;;;;;;;;;;;;;;;;;;5263764;26;86738;-71
2024/04/17 12:09:09;;;;;;;;;;;;;;;;;;5276344;26;90632;-73
2024/04/17 12:11:35;;;;;;;;;;;;;;;;;;5265165;26;87326;-74
2024/04/17 12:14:00;;;;;;;;;;;;;;;;;;5267855;26;87505;-73
2024/04/17 12:16:26;;;;;;;;;;;;;;;;;;5262779;26;87622;-72
2024/04/17 12:18:51;;;;;;;;;;;;;;;;;;5266268;26;88207;-75
2024/04/17 12:21:16;;;;;;;;;;;;;;;;;;5264567;26;87445;-75
2024/04/17 12:23:43;;;;;;;;;;;;;;;;;;5263075;26;87474;-74
2024/04/17 12:28:52;;;;;;;;;;;;;;;;;;5266054;26;87658;-74
2024/04/17 12:31:18;;;;;;;;;;;;;;;;;;5266412;26;87534;-73
2024/04/17 12:33:44;;;;;;;;;;;;;;;;;;5278557;26;87279;-73
2024/04/17 12:36:09;;;;;;;;;;;;;;;;;;5262690;26;89498;-73
2024/04/17 12:38:34;;;;;;;;;;;;;;;;;;5263256;26;88197;-72
2024/04/17 12:41:00;;;;;;;;;;;;;;;;;;5260238;26;87599;-72
2024/04/17 12:43:25;;;;;;;;;;;;;;;;;;5248606;26;89822;-75
2024/04/17 12:45:50;;;;;;;;;;;;;;;;;;5249532;26;87810;-73
2024/04/17 12:48:16;;;;;;;;;;;;;;;;;;5234867;26;87543;-74
2024/04/17 12:50:42;;;;;;;;;;;;;;;;;;5238864;26;88583;-76
2024/04/17 12:53:08;;;;;;;;;;;;;;;;;;5259212;26;87028;-74
2024/04/17 12:55:33;;;;;;;;;;;;;;;;;;5256091;26;87888;-74
2024/04/17 12:57:58;;;;;;;;;;;;;;;;;;5259798;26;87241;-74
2024/04/17 13:00:24;;;;;;;;;;;;;;;;;;5260709;26;87548;-75
2024/04/17 13:02:49;;;;;;;;;;;;;;;;;;5261699;26;87422;-75
2024/04/17 13:05:14;;;;;;;;;;;;;;;;;;5263998;26;87628;-75
2024/04/17 13:07:40;;;;;;;;;;;;;;;;;;5266056;26;87834;-74
2024/04/17 13:10:08;;;;;;;;;;;;;;;;;;5262898;26;87000;-74
2024/04/17 13:12:33;;;;;;;;;;;;;;;;;;5265571;26;87440;-74
2024/04/17 13:14:59;;;;;;;;;;;;;;;;;;5265502;26;87747;-75
2024/04/17 13:17:24;;;;;;;;;;;;;;;;;;5270770;26;87561;-75
2024/04/17 13:19:49;;;;;;;;;;;;;;;;;;5265370;26;87812;-74
2024/04/17 13:22:14;;;;;;;;;;;;;;;;;;5266713;26;87894;-75
2024/04/17 13:24:39;;;;;;;;;;;;;;;;;;5265642;26;87621;-75
2024/04/17 13:27:05;;;;;;;;;;;;;;;;;;5274112;26;88041;-74
2024/04/17 13:29:32;;;;;;;;;;;;;;;;;;5254253;26;90808;-74
2024/04/17 13:31:57;;;;;;;;;;;;;;;;;;5265195;26;86713;-74
2024/04/17 13:34:23;;;;;;;;;;;;;;;;;;5263333;26;87714;-74
2024/04/17 13:36:49;;;;;;;;;;;;;;;;;;5268781;26;86883;-74
2024/04/17 13:39:14;;;;;;;;;;;;;;;;;;5263375;26;87896;-74
2024/04/17 13:41:39;;;;;;;;;;;;;;;;;;5264423;26;87393;-73
2024/04/17 13:44:05;;;;;;;;;;;;;;;;;;5262897;26;86963;-74
2024/04/17 13:46:30;;;;;;;;;;;;;;;;;;5265815;26;87549;-73
2024/04/17 13:48:55;;;;;;;;;;;;;;;;;;5263688;26;86870;-76
2024/04/17 13:51:20;;;;;;;;;;;;;;;;;;5262628;26;88539;-73
2024/04/17 13:53:52;;;;;;;;;;;;;;;;;;5261294;26;88575;-74
2024/04/17 13:56:17;;;;;;;;;;;;;;;;;;5264391;26;88583;-74
2024/04/17 13:58:42;;;;;;;;;;;;;;;;;;5252395;26;88138;-72
2024/04/17 14:01:08;;;;;;;;;;;;;;;;;;5262878;26;88536;-74
2024/04/17 14:03:33;;;;;;;;;;;;;;;;;;5264480;26;87150;-74
2024/04/17 14:05:58;;;;;;;;;;;;;;;;;;5292163;26;89871;-74
2024/04/17 14:08:23;;;;;;;;;;;;;;;;;;5263225;26;87676;-74
2024/04/17 14:10:49;;;;;;;;;;;;;;;;;;5260777;26;86799;-74
2024/04/17 14:13:14;;;;;;;;;;;;;;;;;;5265891;26;87336;-73
2024/04/17 14:15:40;;;;;;;;;;;;;;;;;;5261262;26;86895;-73
2024/04/17 14:18:05;;;;;;;;;;;;;;;;;;5265417;26;87337;-74
2024/04/17 14:20:37;;;;;;;;;;;;;;;;;;5265434;26;87638;-74
2024/04/17 14:23:02;;;;;;;;;;;;;;;;;;5260720;26;87655;-73
2024/04/17 14:25:27;;;;;;;;;;;;;;;;;;5267673;26;89211;-74
2024/04/17 14:27:52;;;;;;;;;;;;;;;;;;5263418;26;87652;-73
2024/04/17 14:30:18;;;;;;;;;;;;;;;;;;5266213;26;87409;-74
2024/04/17 14:32:43;;;;;;;;;;;;;;;;;;5265603;26;88279;-73
2024/04/17 14:35:08;;;;;;;;;;;;;;;;;;5269169;26;87434;-74
2024/04/17 14:37:33;;;;;;;;;;;;;;;;;;5263938;26;87230;-74
2024/04/17 14:40:00;;;;;;;;;;;;;;;;;;5313456;26;90512;-72
2024/04/17 14:42:26;;;;;;;;;;;;;;;;;;5266961;26;86856;-73
2024/04/17 14:44:51;;;;;;;;;;;;;;;;;;5266647;26;87775;-73
2024/04/17 14:47:16;;;;;;;;;;;;;;;;;;5295372;26;88234;-73
2024/04/17 14:49:41;;;;;;;;;;;;;;;;;;5265221;26;86787;-73
2024/04/17 14:52:06;;;;;;;;;;;;;;;;;;5264070;26;87465;-73
2024/04/17 14:54:34;;;;;;;;;;;;;;;;;;5260975;26;88434;-74
2024/04/17 14:57:00;;;;;;;;;;;;;;;;;;5256696;26;86870;-75
2024/04/17 14:59:25;;;;;;;;;;;;;;;;;;5244305;26;90456;-74
2024/04/17 15:01:50;;;;;;;;;;;;;;;;;;5257112;26;87924;-73
2024/04/17 15:04:15;;;;;;;;;;;;;;;;;;5260423;26;87601;-75
2024/04/17 15:06:41;;;;;;;;;;;;;;;;;;5256027;26;87795;-74
2024/04/17 15:09:06;;;;;;;;;;;;;;;;;;5257004;26;87560;-74
2024/04/17 15:11:31;;;;;;;;;;;;;;;;;;5260144;26;87671;-73
2024/04/17 15:13:57;;;;;;;;;;;;;;;;;;5266708;26;87667;-73
2024/04/17 15:16:22;;;;;;;;;;;;;;;;;;5292007;26;88364;-72
2024/04/17 15:18:47;;;;;;;;;;;;;;;;;;5265460;26;87628;-73
2024/04/17 15:21:14;;;;;;;;;;;;;;;;;;5266988;26;87422;-73
2024/04/17 15:23:41;;;;;;;;;;;;;;;;;;5265097;26;87293;-75
2024/04/17 15:26:07;;;;;;;;;;;;;;;;;;5268909;26;87812;-74
2024/04/17 15:28:33;;;;;;;;;;;;;;;;;;5265581;26;87811;-74
2024/04/17 15:31:05;;;;;;;;;;;;;;;;;;5260928;26;87664;-74
2024/04/17 15:33:31;;;;;;;;;;;;;;;;;;5261909;26;87480;-76
2024/04/17 15:35:57;;;;;;;;;;;;;;;;;;5287446;26;87415;-77
2024/04/17 15:38:22;;;;;;;;;;;;;;;;;;5259751;26;88565;-74
2024/04/17 15:40:58;;;;;;;;;;;;;;;;;;5256728;26;88190;-75
2024/04/17 15:43:24;;;;;;;;;;;;;;;;;;5263979;26;87261;-74
2024/04/17 15:45:51;;;;;;;;;;;;;;;;;;5258956;26;88166;-75
2024/04/17 15:48:16;;;;;;;;;;;;;;;;;;5266579;26;87408;-74
2024/04/17 15:50:41;;;;;;;;;;;;;;;;;;5263853;26;87793;-74
2024/04/17 15:53:07;;;;;;;;;;;;;;;;;;5259978;26;88449;-75
2024/04/17 15:55:33;;;;;;;;;;;;;;;;;;5266868;26;88950;-73
2024/04/17 15:57:58;;;;;;;;;;;;;;;;;;5261990;26;88680;-72
2024/04/17 16:00:24;;;;;;;;;;;;;;;;;;5266312;26;86962;-74
2024/04/17 16:02:49;;;;;;;;;;;;;;;;;;5263205;26;88491;-74
2024/04/17 16:05:14;;;;;;;;;;;;;;;;;;5260034;26;87910;-73
2024/04/17 16:07:39;;;;;;;;;;;;;;;;;;5267502;26;89503;-75
2024/04/17 16:10:05;;;;;;;;;;;;;;;;;;5263805;26;87949;-74
2024/04/17 16:12:30;;;;;;;;;;;;;;;;;;5264826;26;86909;-74
2024/04/17 16:14:57;;;;;;;;;;;;;;;;;;5255157;26;86748;-75
2024/04/17 16:17:23;;;;;;;;;;;;;;;;;;5285522;26;91426;-75
2024/04/17 16:19:48;;;;;;;;;;;;;;;;;;5255593;26;87321;-74
2024/04/17 16:22:13;;;;;;;;;;;;;;;;;;5266805;26;87212;-73
2024/04/17 16:24:39;;;;;;;;;;;;;;;;;;5258865;26;89274;-72
2024/04/17 16:27:05;;;;;;;;;;;;;;;;;;5260736;26;88074;-72
2024/04/17 16:29:30;;;;;;;;;;;;;;;;;;5258260;26;87361;-74
2024/04/17 16:31:55;;;;;;;;;;;;;;;;;;5248855;26;87113;-75
2024/04/17 16:34:21;;;;;;;;;;;;;;;;;;5254839;26;86677;-76
2024/04/17 16:36:47;;;;;;;;;;;;;;;;;;5256333;26;87390;-75
2024/04/17 16:39:12;;;;;;;;;;;;;;;;;;5263037;26;87749;-74
2024/04/17 16:41:37;;;;;;;;;;;;;;;;;;5265659;26;87340;-73